createdAt,value
2023-08-08T00:00:07.334Z,1.50
2023-08-08T00:02:36.063Z,1.40
2023-08-08T00:05:06.837Z,1.27
2023-08-08T00:07:35.298Z,1.50
2023-08-08T00:10:04.689Z,1.50
2023-08-08T00:12:33.487Z,1.40
2023-08-08T00:15:02.046Z,1.40
2023-08-08T00:17:30.845Z,1.20
2023-08-08T00:19:59.385Z,1.50
2023-08-08T00:22:29.263Z,1.50
2023-08-08T00:24:58.068Z,1.33
2023-08-08T00:27:26.447Z,1.30
2023-08-08T00:30:00.308Z,1.50
2023-08-08T00:32:28.963Z,1.30
2023-08-08T00:34:57.484Z,1.27
2023-08-08T00:37:25.961Z,1.50
2023-08-08T00:39:55.864Z,1.43
2023-08-08T00:42:24.342Z,1.50
2023-08-08T00:44:52.800Z,1.23
2023-08-08T00:47:21.365Z,1.60
2023-08-08T00:49:50.424Z,1.20
2023-08-08T00:52:18.963Z,1.50
2023-08-08T00:54:47.629Z,1.37
2023-08-08T00:57:17.772Z,1.47
2023-08-08T00:59:46.236Z,1.40
2023-08-08T01:02:14.704Z,1.30
2023-08-08T01:04:43.330Z,1.30
2023-08-08T01:07:14.418Z,1.47
2023-08-08T01:09:47.464Z,1.50
2023-08-08T01:12:17.789Z,1.50
2023-08-08T01:14:46.703Z,1.60
2023-08-08T01:17:15.825Z,1.30
2023-08-08T01:19:44.277Z,1.40
2023-08-08T01:22:27.746Z,1.40
2023-08-08T01:24:58.475Z,1.37
2023-08-08T01:27:26.966Z,1.20
2023-08-08T01:29:55.709Z,1.37
2023-08-08T01:32:24.229Z,1.40
2023-08-08T01:34:52.914Z,1.40
2023-08-08T01:37:23.482Z,1.40
2023-08-08T01:39:54.342Z,1.47
2023-08-08T01:42:24.673Z,1.60
2023-08-08T01:44:53.567Z,1.50
2023-08-08T01:47:22.814Z,1.30
2023-08-08T01:49:51.358Z,1.50
2023-08-08T01:52:20.662Z,1.50
2023-08-08T01:54:49.138Z,1.40
2023-08-08T01:57:17.544Z,1.87
2023-08-08T01:59:47.860Z,1.70
2023-08-08T02:02:18.531Z,1.50
2023-08-08T02:04:46.999Z,1.20
2023-08-08T02:07:15.560Z,1.43
2023-08-08T02:09:44.089Z,1.40
2023-08-08T02:12:13.027Z,1.50
2023-08-08T02:14:41.529Z,1.40
2023-08-08T02:17:11.410Z,1.23
2023-08-08T02:19:39.856Z,1.30
2023-08-08T02:22:08.380Z,1.30
2023-08-08T02:24:36.956Z,1.80
2023-08-08T02:27:05.878Z,1.40
2023-08-08T02:29:34.324Z,1.40
2023-08-08T02:32:03.099Z,1.40
2023-08-08T02:34:32.995Z,1.40
2023-08-08T02:37:01.536Z,1.50
2023-08-08T02:39:29.913Z,1.10
2023-08-08T02:41:58.515Z,1.77
2023-08-08T02:44:28.379Z,1.40
2023-08-08T02:46:56.921Z,1.40
2023-08-08T02:49:25.484Z,1.30
2023-08-08T02:51:55.356Z,1.20
2023-08-08T02:54:24.732Z,1.30
2023-08-08T02:56:53.169Z,1.40
2023-08-08T02:59:21.961Z,1.60
2023-08-08T03:01:51.875Z,1.30
2023-08-08T03:04:20.756Z,1.30
2023-08-08T03:06:49.396Z,1.20
2023-08-08T03:09:19.410Z,1.30
2023-08-08T03:11:49.082Z,1.50
2023-08-08T03:14:18.871Z,1.23
2023-08-08T03:16:48.956Z,1.40
2023-08-08T03:19:17.642Z,1.37
2023-08-08T03:21:46.113Z,1.50
2023-08-08T03:24:14.739Z,1.50
2023-08-08T03:26:44.784Z,1.40
2023-08-08T03:29:16.401Z,1.20
2023-08-08T03:31:49.245Z,1.33
2023-08-08T03:34:18.625Z,1.30
2023-08-08T03:36:47.446Z,1.40
2023-08-08T03:39:16.288Z,1.30
2023-08-08T03:41:46.460Z,1.30
2023-08-08T03:44:15.300Z,1.27
2023-08-08T03:46:43.938Z,1.40
2023-08-08T03:49:12.397Z,1.20
2023-08-08T03:51:41.060Z,1.17
2023-08-08T03:54:09.775Z,1.27
2023-08-08T03:56:38.458Z,1.37
2023-08-08T03:59:08.792Z,1.23
2023-08-08T04:01:39.016Z,1.20
2023-08-08T04:04:07.687Z,1.13
2023-08-08T04:06:36.149Z,1.47
2023-08-08T04:09:04.586Z,1.33
2023-08-08T04:11:32.997Z,1.30
2023-08-08T04:14:01.494Z,1.33
2023-08-08T04:16:32.069Z,1.07
2023-08-08T04:19:00.602Z,1.20
2023-08-08T04:21:30.268Z,1.30
2023-08-08T04:23:58.827Z,1.20
2023-08-08T04:26:27.302Z,1.30
2023-08-08T04:28:56.542Z,1.40
2023-08-08T04:31:26.955Z,1.20
2023-08-08T04:34:02.168Z,1.20
2023-08-08T04:36:31.126Z,1.30
2023-08-08T04:39:00.108Z,1.20
2023-08-08T04:41:28.912Z,1.30
2023-08-08T04:43:57.570Z,1.30
2023-08-08T04:46:25.998Z,1.13
2023-08-08T04:48:56.110Z,1.30
2023-08-08T04:51:26.062Z,1.33
2023-08-08T04:53:54.489Z,1.10
2023-08-08T04:56:22.968Z,1.33
2023-08-08T04:58:51.352Z,1.20
2023-08-08T05:01:21.706Z,1.10
2023-08-08T05:03:52.480Z,1.20
2023-08-08T05:06:22.313Z,1.37
2023-08-08T05:08:53.061Z,1.03
2023-08-08T05:11:22.845Z,1.10
2023-08-08T05:13:51.453Z,1.30
2023-08-08T05:16:20.659Z,1.20
2023-08-08T05:18:49.209Z,1.47
2023-08-08T05:21:17.613Z,1.17
2023-08-08T05:23:46.049Z,1.10
2023-08-08T05:26:16.444Z,1.30
2023-08-08T05:28:44.953Z,1.40
2023-08-08T05:31:13.457Z,1.20
2023-08-08T05:33:42.451Z,1.10
2023-08-08T05:36:10.921Z,1.20
2023-08-08T05:38:39.412Z,1.20
2023-08-08T05:41:07.947Z,1.33
2023-08-08T05:43:37.876Z,1.20
2023-08-08T05:46:06.497Z,1.20
2023-08-08T05:48:35.051Z,1.20
2023-08-08T05:51:06.152Z,1.20
2023-08-08T05:53:34.700Z,1.10
2023-08-08T05:56:03.521Z,1.00
2023-08-08T05:58:32.141Z,1.20
2023-08-08T06:01:02.072Z,1.10
2023-08-08T06:03:30.779Z,1.10
2023-08-08T06:05:59.498Z,1.27
2023-08-08T06:08:28.136Z,1.30
2023-08-08T06:10:56.630Z,1.17
2023-08-08T06:13:25.157Z,1.10
2023-08-08T06:15:54.247Z,1.17
2023-08-08T06:18:24.386Z,1.17
2023-08-08T06:20:52.906Z,1.07
2023-08-08T06:23:22.574Z,1.13
2023-08-08T06:25:51.153Z,1.10
2023-08-08T06:28:19.732Z,1.27
2023-08-08T06:30:48.408Z,1.23
2023-08-08T06:33:16.839Z,1.00
2023-08-08T06:35:47.300Z,1.03
2023-08-08T06:38:16.314Z,0.90
2023-08-08T06:40:44.789Z,1.40
2023-08-08T06:43:13.438Z,1.10
2023-08-08T06:45:42.254Z,1.00
2023-08-08T06:48:11.759Z,1.10
2023-08-08T06:50:40.331Z,1.13
2023-08-08T06:53:10.171Z,1.17
2023-08-08T06:55:38.642Z,1.30
2023-08-08T06:58:07.235Z,1.17
2023-08-08T07:00:35.784Z,0.90
2023-08-08T07:03:04.576Z,1.10
2023-08-08T07:05:33.244Z,1.10
2023-08-08T07:08:01.707Z,1.17
2023-08-08T07:10:32.118Z,1.20
2023-08-08T07:13:00.746Z,1.20
2023-08-08T07:15:29.660Z,1.20
2023-08-08T07:17:58.579Z,1.10
2023-08-08T07:20:27.206Z,0.90
2023-08-08T07:22:55.970Z,1.10
2023-08-08T07:25:24.565Z,0.93
2023-08-08T07:27:54.505Z,0.90
2023-08-08T07:30:25.170Z,1.13
2023-08-08T07:32:53.683Z,1.00
2023-08-08T07:35:22.187Z,1.08
2023-08-08T07:37:50.617Z,1.20
2023-08-08T07:40:19.826Z,1.00
2023-08-08T07:42:48.470Z,1.10
2023-08-08T07:45:18.756Z,1.20
2023-08-08T07:47:47.276Z,1.33
2023-08-08T07:50:17.576Z,1.13
2023-08-08T07:52:46.297Z,1.05
2023-08-08T07:55:16.245Z,1.13
2023-08-08T07:57:44.683Z,1.20
2023-08-08T08:00:13.768Z,1.13
2023-08-08T08:02:46.558Z,1.10
2023-08-08T08:05:15.739Z,1.33
2023-08-08T08:07:45.025Z,1.27
2023-08-08T08:10:14.933Z,1.00
2023-08-08T08:12:43.676Z,1.20
2023-08-08T08:15:12.422Z,1.25
2023-08-08T08:17:40.955Z,1.10
2023-08-08T08:20:13.388Z,1.23
2023-08-08T08:22:41.938Z,1.20
2023-08-08T08:25:13.659Z,1.30
2023-08-08T08:27:42.506Z,1.60
2023-08-08T08:30:11.685Z,1.38
2023-08-08T08:32:40.507Z,1.30
2023-08-08T08:35:11.154Z,1.23
2023-08-08T08:37:41.013Z,1.30
2023-08-08T08:40:10.621Z,1.10
2023-08-08T08:42:39.669Z,1.33
2023-08-08T08:45:10.311Z,1.15
2023-08-08T08:47:39.301Z,1.70
2023-08-08T08:50:09.915Z,1.60
2023-08-08T08:52:38.551Z,1.70
2023-08-08T08:55:09.803Z,1.48
2023-08-08T08:57:38.608Z,1.58
2023-08-08T09:00:08.033Z,1.48
2023-08-08T09:02:36.716Z,1.60
2023-08-08T09:05:06.187Z,1.50
2023-08-08T09:07:35.914Z,1.63
2023-08-08T09:10:05.345Z,1.40
2023-08-08T09:12:37.468Z,1.60
2023-08-08T09:15:06.641Z,1.30
2023-08-08T09:17:47.315Z,1.50
2023-08-08T09:20:17.685Z,1.20
2023-08-08T09:22:49.423Z,1.58
2023-08-08T09:25:17.981Z,1.40
2023-08-08T09:27:48.368Z,1.40
2023-08-08T09:30:18.005Z,1.38
2023-08-08T09:32:47.021Z,1.42
2023-08-08T09:35:16.101Z,1.48
2023-08-08T09:37:44.675Z,1.20
2023-08-08T09:40:14.155Z,1.35
2023-08-08T09:42:43.535Z,1.30
2023-08-08T09:45:13.653Z,1.25
2023-08-08T09:47:42.895Z,1.17
2023-08-08T09:50:11.635Z,1.20
2023-08-08T09:52:41.142Z,1.42
2023-08-08T09:55:10.039Z,1.27
2023-08-08T09:57:40.250Z,1.30
2023-08-08T10:00:16.805Z,1.30
2023-08-08T10:02:47.820Z,1.55
2023-08-08T10:05:17.407Z,1.30
2023-08-08T10:07:46.265Z,1.40
2023-08-08T10:10:16.234Z,1.30
2023-08-08T10:12:45.256Z,1.38
2023-08-08T10:15:13.836Z,1.50
2023-08-08T10:17:44.128Z,1.40
2023-08-08T10:20:18.681Z,1.10
2023-08-08T10:22:48.404Z,1.17
2023-08-08T10:25:21.597Z,1.40
2023-08-08T10:27:50.192Z,1.08
2023-08-08T10:30:18.709Z,1.25
2023-08-08T10:32:49.003Z,1.40
2023-08-08T10:35:18.925Z,1.30
2023-08-08T10:37:55.645Z,1.30
2023-08-08T10:40:24.378Z,1.50
2023-08-08T10:42:55.095Z,1.65
2023-08-08T10:45:23.670Z,1.35
2023-08-08T10:47:52.284Z,1.38
2023-08-08T10:50:26.073Z,1.48
2023-08-08T10:52:56.350Z,1.20
2023-08-08T10:55:28.225Z,1.17
2023-08-08T10:58:00.999Z,1.20
2023-08-08T11:00:31.767Z,1.33
2023-08-08T11:03:00.582Z,1.20
2023-08-08T11:05:32.151Z,1.30
2023-08-08T11:08:01.074Z,1.23
2023-08-08T11:10:32.287Z,1.10
2023-08-08T11:13:01.712Z,1.30
2023-08-08T11:15:30.776Z,1.20
2023-08-08T11:17:59.591Z,1.48
2023-08-08T11:20:28.521Z,1.40
2023-08-08T11:22:59.109Z,1.20
2023-08-08T11:25:28.767Z,1.20
2023-08-08T11:27:58.275Z,1.20
2023-08-08T11:30:27.476Z,1.38
2023-08-08T11:35:29.126Z,1.20
2023-08-08T11:37:59.996Z,1.50
2023-08-08T11:40:32.092Z,1.30
2023-08-08T11:43:01.926Z,1.20
2023-08-08T11:45:30.474Z,1.38
2023-08-08T11:47:59.344Z,1.15
2023-08-08T11:50:29.498Z,1.30
2023-08-08T11:53:00.564Z,1.33
2023-08-08T11:55:32.850Z,1.35
2023-08-08T11:58:02.303Z,1.40
2023-08-08T12:00:32.384Z,1.40
2023-08-08T12:03:01.569Z,1.33
2023-08-08T12:05:31.226Z,1.33
2023-08-08T12:08:01.245Z,1.30
2023-08-08T12:10:29.888Z,1.30
2023-08-08T12:13:01.126Z,1.52
2023-08-08T12:15:33.034Z,1.30
2023-08-08T12:18:02.644Z,1.23
2023-08-08T12:20:32.227Z,1.50
2023-08-08T12:23:02.242Z,1.30
2023-08-08T12:25:30.982Z,1.17
2023-08-08T12:27:59.526Z,1.20
2023-08-08T12:30:28.071Z,1.63
2023-08-08T12:32:56.604Z,1.40
2023-08-08T12:35:27.634Z,1.30
2023-08-08T12:37:56.666Z,1.50
2023-08-08T12:40:27.337Z,1.38
2023-08-08T12:42:55.975Z,1.40
2023-08-08T12:45:24.950Z,1.33
2023-08-08T12:47:53.505Z,1.23
2023-08-08T12:50:22.182Z,1.40
2023-08-08T12:52:51.041Z,1.20
2023-08-08T12:55:20.890Z,1.40
2023-08-08T12:57:50.782Z,1.30
2023-08-08T13:00:19.794Z,1.30
2023-08-08T13:02:48.689Z,1.30
2023-08-08T13:05:17.241Z,1.48
2023-08-08T13:07:45.658Z,1.48
2023-08-08T13:10:14.148Z,1.60
2023-08-08T13:12:42.559Z,1.38
2023-08-08T13:15:13.176Z,1.40
2023-08-08T13:17:41.779Z,1.42
2023-08-08T13:20:10.911Z,1.50
2023-08-08T13:22:39.387Z,1.40
2023-08-08T13:25:09.686Z,1.25
2023-08-08T13:27:38.216Z,1.27
2023-08-08T13:30:07.346Z,1.10
2023-08-08T13:32:37.159Z,1.35
2023-08-08T13:35:05.969Z,1.33
2023-08-08T13:37:34.560Z,1.48
2023-08-08T13:40:03.075Z,1.30
2023-08-08T13:42:32.981Z,1.20
2023-08-08T13:45:02.136Z,1.60
2023-08-08T13:47:30.982Z,1.58
2023-08-08T13:50:02.853Z,1.30
2023-08-08T13:52:34.166Z,1.30
2023-08-08T13:55:02.751Z,1.30
2023-08-08T13:57:31.226Z,1.45
2023-08-08T13:59:59.679Z,1.40
2023-08-08T14:02:28.270Z,1.50
2023-08-08T14:04:56.939Z,1.20
2023-08-08T14:07:26.887Z,1.42
2023-08-08T14:09:55.403Z,1.27
2023-08-08T14:12:24.112Z,1.73
2023-08-08T14:14:53.361Z,1.38
2023-08-08T14:17:22.127Z,1.50
2023-08-08T14:19:51.122Z,1.30
2023-08-08T14:22:19.704Z,1.50
2023-08-08T14:24:49.528Z,1.35
2023-08-08T14:27:18.072Z,1.50
2023-08-08T14:29:46.693Z,1.55
2023-08-08T14:32:15.605Z,1.30
2023-08-08T14:34:44.322Z,1.45
2023-08-08T14:37:13.229Z,1.80
2023-08-08T14:39:41.805Z,1.40
2023-08-08T14:42:11.657Z,1.40
2023-08-08T14:44:40.158Z,1.35
2023-08-08T14:47:08.903Z,1.23
2023-08-08T14:49:37.485Z,1.52
2023-08-08T14:52:06.455Z,1.52
2023-08-08T14:54:37.092Z,1.20
2023-08-08T14:57:05.930Z,1.30
2023-08-08T14:59:36.546Z,1.52
2023-08-08T15:02:05.301Z,1.40
2023-08-08T15:04:35.034Z,1.38
2023-08-08T15:07:04.191Z,1.30
2023-08-08T15:09:32.945Z,1.65
2023-08-08T15:12:02.015Z,1.45
2023-08-08T15:14:32.800Z,1.50
2023-08-08T15:17:03.078Z,1.60
2023-08-08T15:19:32.415Z,1.50
2023-08-08T15:22:02.346Z,1.40
2023-08-08T15:24:30.779Z,1.60
2023-08-08T15:26:59.338Z,1.30
2023-08-08T15:29:28.141Z,1.30
2023-08-08T15:31:56.785Z,1.52
2023-08-08T15:34:26.641Z,1.45
2023-08-08T15:36:55.265Z,1.60
2023-08-08T15:39:24.202Z,1.50
2023-08-08T15:41:52.769Z,1.40
2023-08-08T15:44:21.523Z,1.65
2023-08-08T15:46:50.219Z,1.60
2023-08-08T15:49:18.753Z,1.50
2023-08-08T15:51:50.145Z,2.30
2023-08-08T15:54:21.819Z,1.65
2023-08-08T15:56:50.254Z,1.40
2023-08-08T15:59:19.176Z,1.50
2023-08-08T16:01:47.696Z,1.60
2023-08-08T16:04:17.614Z,1.65
2023-08-08T16:06:46.194Z,1.58
2023-08-08T16:09:16.148Z,1.40
2023-08-08T16:11:45.869Z,1.50
2023-08-08T16:14:16.096Z,1.50
2023-08-08T16:16:44.868Z,1.70
2023-08-08T16:19:13.672Z,1.52
2023-08-08T16:21:43.084Z,1.25
2023-08-08T16:24:11.806Z,1.30
2023-08-08T16:26:41.761Z,1.70
2023-08-08T16:29:10.429Z,1.52
2023-08-08T16:31:40.028Z,1.30
2023-08-08T16:34:08.593Z,1.65
2023-08-08T16:36:38.703Z,1.50
2023-08-08T16:39:18.113Z,1.90
2023-08-08T16:41:49.384Z,1.40
2023-08-08T16:44:18.276Z,1.33
2023-08-08T16:46:47.078Z,1.48
2023-08-08T16:49:15.634Z,1.40
2023-08-08T16:51:44.820Z,1.38
2023-08-08T16:54:13.726Z,1.40
2023-08-08T16:56:42.331Z,1.50
2023-08-08T16:59:12.222Z,1.40
2023-08-08T17:01:42.635Z,1.30
2023-08-08T17:04:11.815Z,1.50
2023-08-08T17:06:40.688Z,1.27
2023-08-08T17:09:09.256Z,1.33
2023-08-08T17:11:38.682Z,1.35
2023-08-08T17:14:07.123Z,1.50
2023-08-08T17:16:38.302Z,1.50
2023-08-08T17:19:07.117Z,1.60
2023-08-08T17:21:35.582Z,1.42
2023-08-08T17:24:07.191Z,1.40
2023-08-08T17:26:35.908Z,1.38
2023-08-08T17:29:04.535Z,1.67
2023-08-08T17:31:33.018Z,1.40
2023-08-08T17:34:06.721Z,1.25
2023-08-08T17:36:36.581Z,1.52
2023-08-08T17:39:05.231Z,1.50
2023-08-08T17:41:33.679Z,1.40
2023-08-08T17:44:02.131Z,1.52
2023-08-08T17:46:30.919Z,1.42
2023-08-08T17:48:59.389Z,1.65
2023-08-08T17:51:29.694Z,1.85
2023-08-08T17:53:58.272Z,1.48
2023-08-08T17:56:26.732Z,1.50
2023-08-08T17:58:55.202Z,1.50
2023-08-08T18:01:23.683Z,1.63
2023-08-08T18:03:52.175Z,1.80
2023-08-08T18:06:20.619Z,1.70
2023-08-08T18:08:50.481Z,1.77
2023-08-08T18:11:20.178Z,1.65
2023-08-08T18:13:49.363Z,1.63
2023-08-08T18:16:17.874Z,1.45
2023-08-08T18:18:46.674Z,1.67
2023-08-08T18:21:15.148Z,1.77
2023-08-08T18:23:43.677Z,1.55
2023-08-08T18:26:18.233Z,1.65
2023-08-08T18:28:46.948Z,1.83
2023-08-08T18:31:15.785Z,1.98
2023-08-08T18:33:44.867Z,1.80
2023-08-08T18:36:13.234Z,1.95
2023-08-08T18:38:43.942Z,1.70
2023-08-08T18:41:14.102Z,1.58
2023-08-08T18:43:42.495Z,2.00
2023-08-08T18:46:11.005Z,1.95
2023-08-08T18:48:39.552Z,1.70
2023-08-08T18:51:08.135Z,1.98
2023-08-08T18:53:37.587Z,2.20
2023-08-08T18:56:06.248Z,1.90
2023-08-08T18:58:36.088Z,1.70
2023-08-08T19:01:06.076Z,1.85
2023-08-08T19:03:34.791Z,1.95
2023-08-08T19:06:04.365Z,1.60
2023-08-08T19:08:34.695Z,1.70
2023-08-08T19:11:04.585Z,1.70
2023-08-08T19:13:33.173Z,1.73
2023-08-08T19:16:03.112Z,1.75
2023-08-08T19:18:31.642Z,1.92
2023-08-08T19:21:02.619Z,1.70
2023-08-08T19:23:31.202Z,1.67
2023-08-08T19:26:01.316Z,2.00
2023-08-08T19:28:30.002Z,1.88
2023-08-08T19:30:58.570Z,1.73
2023-08-08T19:33:30.548Z,1.70
2023-08-08T19:36:01.283Z,1.63
2023-08-08T19:38:29.758Z,1.77
2023-08-08T19:40:58.225Z,1.90
2023-08-08T19:43:26.841Z,1.90
2023-08-08T19:45:56.765Z,1.95
2023-08-08T19:48:25.346Z,2.25
2023-08-08T19:50:55.131Z,2.47
2023-08-08T19:53:23.699Z,2.10
2023-08-08T19:55:54.015Z,1.88
2023-08-08T19:58:22.491Z,2.20
2023-08-08T20:00:51.061Z,1.70
2023-08-08T20:03:19.622Z,1.85
2023-08-08T20:05:48.193Z,2.13
2023-08-08T20:08:18.576Z,2.08
2023-08-08T20:10:47.095Z,2.00
2023-08-08T20:13:15.922Z,2.00
2023-08-08T20:15:44.402Z,2.85
2023-08-08T20:18:16.632Z,2.33
2023-08-08T20:20:45.213Z,2.30
2023-08-08T20:23:13.648Z,2.00
2023-08-08T20:25:43.574Z,2.10
2023-08-08T20:28:12.280Z,2.20
2023-08-08T20:30:42.746Z,2.05
2023-08-08T20:33:13.296Z,1.90
2023-08-08T20:35:42.642Z,2.15
2023-08-08T20:38:11.381Z,1.90
2023-08-08T20:40:39.923Z,2.13
2023-08-08T20:43:09.804Z,2.10
2023-08-08T20:45:38.505Z,2.10
2023-08-08T20:48:07.445Z,2.05
2023-08-08T20:50:35.993Z,2.08
2023-08-08T20:53:04.491Z,1.75
2023-08-08T20:55:32.940Z,2.00
2023-08-08T20:58:02.564Z,1.90
2023-08-08T21:00:32.338Z,1.85
2023-08-08T21:03:00.825Z,1.88
2023-08-08T21:05:29.530Z,1.90
2023-08-08T21:07:59.434Z,1.77
2023-08-08T21:10:28.017Z,2.05
2023-08-08T21:12:56.716Z,1.88
2023-08-08T21:15:26.485Z,1.90
2023-08-08T21:17:56.490Z,1.90
2023-08-08T21:20:25.566Z,1.98
2023-08-08T21:22:54.151Z,2.10
2023-08-08T21:25:22.597Z,2.42
2023-08-08T21:27:51.105Z,1.98
2023-08-08T21:30:19.844Z,2.40
2023-08-08T21:32:48.318Z,2.03
2023-08-08T21:35:18.205Z,2.53
2023-08-08T21:37:46.780Z,2.00
2023-08-08T21:40:16.347Z,1.88
2023-08-08T21:42:44.829Z,2.08
2023-08-08T21:45:13.277Z,1.70
2023-08-08T21:47:41.884Z,2.30
2023-08-08T21:50:10.701Z,2.10
2023-08-08T21:52:40.536Z,2.17
2023-08-08T21:55:09.424Z,1.80
2023-08-08T21:57:37.940Z,1.98
2023-08-08T22:00:07.102Z,2.30
2023-08-08T22:02:42.779Z,2.00
2023-08-08T22:05:11.435Z,1.98
2023-08-08T22:07:41.400Z,2.25
2023-08-08T22:10:10.113Z,2.13
2023-08-08T22:12:38.560Z,2.10
2023-08-08T22:15:07.707Z,2.30
2023-08-08T22:17:36.177Z,2.10
2023-08-08T22:20:04.803Z,2.33
2023-08-08T22:22:33.906Z,2.30
2023-08-08T22:25:03.748Z,1.90
2023-08-08T22:27:32.151Z,2.07
2023-08-08T22:30:00.569Z,2.15
2023-08-08T22:32:31.372Z,2.20
2023-08-08T22:34:59.915Z,2.23
2023-08-08T22:37:28.595Z,2.10
2023-08-08T22:39:57.155Z,2.00
2023-08-08T22:42:26.916Z,1.90
2023-08-08T22:44:55.612Z,2.42
2023-08-08T22:47:24.392Z,2.10
2023-08-08T22:49:52.881Z,2.10
2023-08-08T22:52:21.430Z,2.20
2023-08-08T22:54:51.586Z,2.50
2023-08-08T22:57:20.669Z,2.47
2023-08-08T22:59:50.511Z,2.20
2023-08-08T23:02:19.167Z,2.10
2023-08-08T23:04:47.752Z,2.20
2023-08-08T23:07:17.111Z,2.10
2023-08-08T23:09:45.722Z,2.50
2023-08-08T23:12:14.184Z,2.33
2023-08-08T23:14:42.779Z,2.40
2023-08-08T23:17:12.679Z,2.10
2023-08-08T23:19:41.314Z,2.27
2023-08-08T23:22:09.928Z,1.80
2023-08-08T23:24:38.632Z,2.20
2023-08-08T23:27:07.169Z,2.10
2023-08-08T23:29:35.698Z,2.20
2023-08-08T23:32:04.822Z,2.40
2023-08-08T23:34:35.151Z,2.30
2023-08-08T23:37:03.952Z,2.30
2023-08-08T23:39:32.843Z,2.20
2023-08-08T23:42:01.514Z,2.03
2023-08-08T23:44:30.433Z,2.23
2023-08-08T23:46:58.867Z,2.27
2023-08-08T23:49:27.284Z,1.87
2023-08-08T23:51:57.131Z,2.17
2023-08-08T23:54:26.112Z,2.20
2023-08-08T23:56:54.524Z,2.50
2023-08-08T23:59:22.966Z,2.37
